createdAt,value
2018-09-30T00:01:50.307Z,9.70
2018-09-30T00:04:18.893Z,9.60
2018-09-30T00:06:47.280Z,9.50
2018-09-30T00:09:15.705Z,9.50
2018-09-30T00:11:44.337Z,9.40
2018-09-30T00:14:12.978Z,9.40
2018-09-30T00:16:41.381Z,9.30
2018-09-30T00:19:09.823Z,9.30
2018-09-30T00:21:40.157Z,9.30
2018-09-30T00:24:13.983Z,9.20
2018-09-30T00:26:48.372Z,9.20
2018-09-30T00:29:16.800Z,9.20
2018-09-30T00:31:45.769Z,9.20
2018-09-30T00:34:20.255Z,9.20
2018-09-30T00:36:48.766Z,9.20
2018-09-30T00:39:17.174Z,9.20
2018-09-30T00:41:45.576Z,9.20
2018-09-30T00:44:14.012Z,9.20
2018-09-30T00:46:42.738Z,9.20
2018-09-30T00:49:12.289Z,9.20
2018-09-30T00:51:41.256Z,9.20
2018-09-30T00:54:10.797Z,9.30
2018-09-30T00:56:39.439Z,9.30
2018-09-30T00:59:08.261Z,9.20
2018-09-30T01:01:37.842Z,9.20
2018-09-30T01:04:06.504Z,9.20
2018-09-30T01:06:35.193Z,9.20
2018-09-30T01:09:04.462Z,9.20
2018-09-30T01:11:32.938Z,9.20
2018-09-30T01:14:01.430Z,9.20
2018-09-30T01:16:30.012Z,9.20
2018-09-30T01:18:58.412Z,9.10
2018-09-30T01:21:26.887Z,9.00
2018-09-30T01:23:55.290Z,9.00
2018-09-30T01:26:23.712Z,9.00
2018-09-30T01:28:52.388Z,9.00
2018-09-30T01:31:21.143Z,9.00
2018-09-30T01:33:49.533Z,9.00
2018-09-30T01:36:18.680Z,9.00
2018-09-30T01:38:47.104Z,9.00
2018-09-30T01:41:15.529Z,9.00
2018-09-30T01:43:43.968Z,9.00
2018-09-30T01:46:12.376Z,9.00
2018-09-30T01:48:41.171Z,9.00
2018-09-30T01:51:09.650Z,8.90
2018-09-30T01:53:38.041Z,9.00
2018-09-30T01:56:06.452Z,8.90
2018-09-30T01:58:34.867Z,8.90
2018-09-30T02:01:03.305Z,8.90
2018-09-30T02:03:31.708Z,8.90
2018-09-30T02:06:00.119Z,8.90
2018-09-30T02:08:28.529Z,8.90
2018-09-30T02:10:56.957Z,9.00
2018-09-30T02:13:25.367Z,9.00
2018-09-30T02:15:53.760Z,9.00
2018-09-30T02:18:22.190Z,9.00
2018-09-30T02:20:50.573Z,9.00
2018-09-30T02:23:18.985Z,9.00
2018-09-30T02:25:47.377Z,9.00
2018-09-30T02:28:15.787Z,9.00
2018-09-30T02:30:44.185Z,9.00
2018-09-30T02:33:12.605Z,9.00
2018-09-30T02:35:41.074Z,8.90
2018-09-30T02:38:10.180Z,8.90
2018-09-30T02:40:38.571Z,8.90
2018-09-30T02:43:07.028Z,8.90
2018-09-30T02:45:35.473Z,8.80
2018-09-30T02:48:03.871Z,8.80
2018-09-30T02:50:32.409Z,8.70
2018-09-30T02:53:00.820Z,8.70
2018-09-30T02:55:29.233Z,8.60
2018-09-30T02:57:57.660Z,8.60
2018-09-30T03:00:26.069Z,8.50
2018-09-30T03:02:54.486Z,8.50
2018-09-30T03:05:22.909Z,8.50
2018-09-30T03:07:56.781Z,8.40
2018-09-30T03:10:25.232Z,8.30
2018-09-30T03:12:53.626Z,8.30
2018-09-30T03:15:22.053Z,8.20
2018-09-30T03:17:50.456Z,8.10
2018-09-30T03:20:18.893Z,8.10
2018-09-30T03:22:47.314Z,8.00
2018-09-30T03:25:15.732Z,8.00
2018-09-30T03:27:44.128Z,7.90
2018-09-30T03:30:12.545Z,7.90
2018-09-30T03:32:41.180Z,7.80
2018-09-30T03:35:09.627Z,7.90
2018-09-30T03:37:38.052Z,7.80
2018-09-30T03:40:06.567Z,7.80
2018-09-30T03:42:34.975Z,7.70
2018-09-30T03:45:03.452Z,7.70
2018-09-30T03:47:31.845Z,7.70
2018-09-30T03:50:00.261Z,7.60
2018-09-30T03:52:28.740Z,7.60
2018-09-30T03:54:57.140Z,7.60
2018-09-30T03:57:25.593Z,7.60
2018-09-30T03:59:54.039Z,7.60
2018-09-30T04:02:22.493Z,7.60
2018-09-30T04:04:50.877Z,7.70
2018-09-30T04:07:19.385Z,7.70
2018-09-30T04:09:47.954Z,7.70
2018-09-30T04:12:16.214Z,7.70
2018-09-30T04:14:44.608Z,7.70
2018-09-30T04:17:13.096Z,7.70
2018-09-30T04:19:41.498Z,7.70
2018-09-30T04:22:09.925Z,7.70
2018-09-30T04:24:38.344Z,7.70
2018-09-30T04:27:06.768Z,7.70
2018-09-30T04:29:35.177Z,7.70
2018-09-30T04:32:03.617Z,7.60
2018-09-30T04:34:32.026Z,7.50
2018-09-30T04:37:00.426Z,7.50
2018-09-30T04:39:28.837Z,7.40
2018-09-30T04:41:57.230Z,7.40
2018-09-30T04:44:25.636Z,7.40
2018-09-30T04:46:54.037Z,7.40
2018-09-30T04:49:22.436Z,7.40
2018-09-30T04:51:50.845Z,7.40
2018-09-30T04:54:19.251Z,7.40
2018-09-30T04:56:47.656Z,7.40
2018-09-30T04:59:16.064Z,7.40
2018-09-30T05:01:44.464Z,7.40
2018-09-30T05:04:12.904Z,7.40
2018-09-30T05:06:41.298Z,7.40
2018-09-30T05:09:10.152Z,7.30
2018-09-30T05:11:38.808Z,7.30
2018-09-30T05:14:07.502Z,7.30
2018-09-30T05:16:35.904Z,7.30
2018-09-30T05:19:04.300Z,7.20
2018-09-30T05:21:32.728Z,7.20
2018-09-30T05:24:01.133Z,7.20
2018-09-30T05:26:29.822Z,7.10
2018-09-30T05:28:58.218Z,7.10
2018-09-30T05:31:26.889Z,7.10
2018-09-30T05:33:55.352Z,7.10
2018-09-30T05:36:24.154Z,7.00
2018-09-30T05:38:52.561Z,7.00
2018-09-30T05:41:21.005Z,7.00
2018-09-30T05:43:49.451Z,6.90
2018-09-30T05:46:17.874Z,6.90
2018-09-30T05:48:46.253Z,6.90
2018-09-30T05:51:14.774Z,6.90
2018-09-30T05:53:43.186Z,6.90
2018-09-30T05:56:11.612Z,6.90
2018-09-30T05:58:40.282Z,6.90
2018-09-30T06:01:08.725Z,6.90
2018-09-30T06:03:37.116Z,6.90
2018-09-30T06:06:05.553Z,6.90
2018-09-30T06:08:33.961Z,7.00
2018-09-30T06:11:02.375Z,7.00
2018-09-30T06:13:30.781Z,7.00
2018-09-30T06:15:59.309Z,7.00
2018-09-30T06:18:27.718Z,7.00
2018-09-30T06:20:56.136Z,7.00
2018-09-30T06:23:24.543Z,7.10
2018-09-30T06:25:52.952Z,7.10
2018-09-30T06:28:21.371Z,7.10
2018-09-30T06:30:49.788Z,7.10
2018-09-30T06:33:18.242Z,7.20
2018-09-30T06:35:46.647Z,7.20
2018-09-30T06:38:15.132Z,7.30
2018-09-30T06:40:43.562Z,7.30
2018-09-30T06:43:11.981Z,7.40
2018-09-30T06:45:40.396Z,7.50
2018-09-30T06:48:08.856Z,7.50
2018-09-30T06:50:37.290Z,7.60
2018-09-30T06:53:05.816Z,7.60
2018-09-30T06:55:34.225Z,7.60
2018-09-30T06:58:02.680Z,7.70
2018-09-30T07:00:31.107Z,7.70
2018-09-30T07:02:59.521Z,7.80
2018-09-30T07:05:28.090Z,7.80
2018-09-30T07:07:56.501Z,7.80
2018-09-30T07:10:24.904Z,7.80
2018-09-30T07:12:53.332Z,7.90
2018-09-30T07:15:21.742Z,7.90
2018-09-30T07:17:50.166Z,8.00
2018-09-30T07:20:18.689Z,8.10
2018-09-30T07:22:47.292Z,8.10
2018-09-30T07:25:15.709Z,8.30
2018-09-30T07:27:44.163Z,8.40
2018-09-30T07:30:12.685Z,8.40
2018-09-30T07:32:41.834Z,8.40
2018-09-30T07:35:10.693Z,8.60
2018-09-30T07:37:39.129Z,8.70
2018-09-30T07:40:07.668Z,8.80
2018-09-30T07:42:36.120Z,8.90
2018-09-30T07:45:04.778Z,9.00
2018-09-30T07:47:33.342Z,9.10
2018-09-30T07:50:01.876Z,9.20
2018-09-30T07:52:30.447Z,9.30
2018-09-30T07:54:59.357Z,9.40
2018-09-30T07:57:27.967Z,9.40
2018-09-30T07:59:56.394Z,9.50
2018-09-30T08:02:24.919Z,9.60
2018-09-30T08:04:53.382Z,9.70
2018-09-30T08:07:21.875Z,9.80
2018-09-30T08:09:50.388Z,9.90
2018-09-30T08:12:18.918Z,10.00
2018-09-30T08:14:47.400Z,10.00
2018-09-30T08:17:15.869Z,10.10
2018-09-30T08:19:44.449Z,10.30
2018-09-30T08:22:13.058Z,10.40
2018-09-30T08:24:41.544Z,10.50
2018-09-30T08:27:10.056Z,10.60
2018-09-30T08:29:39.256Z,10.80
2018-09-30T08:32:07.833Z,10.90
2018-09-30T08:34:36.255Z,11.00
2018-09-30T08:37:04.865Z,11.10
2018-09-30T08:39:33.577Z,11.20
2018-09-30T08:42:02.128Z,11.30
2018-09-30T08:44:30.576Z,11.50
2018-09-30T08:46:59.121Z,11.60
2018-09-30T08:49:27.723Z,11.80
2018-09-30T08:51:56.185Z,12.10
2018-09-30T08:54:24.800Z,12.30
2018-09-30T08:56:53.394Z,12.60
2018-09-30T08:59:21.925Z,12.80
2018-09-30T09:01:50.407Z,13.00
2018-09-30T09:04:18.998Z,13.10
2018-09-30T09:06:47.596Z,13.30
2018-09-30T09:09:16.173Z,13.40
2018-09-30T09:11:44.708Z,13.40
2018-09-30T09:14:13.315Z,13.50
2018-09-30T09:16:41.852Z,13.50
2018-09-30T09:19:10.424Z,13.50
2018-09-30T09:21:38.967Z,13.60
2018-09-30T09:24:07.502Z,13.60
2018-09-30T09:26:36.006Z,13.60
2018-09-30T09:29:04.677Z,13.70
2018-09-30T09:31:33.267Z,13.70
2018-09-30T09:34:01.745Z,13.60
2018-09-30T09:36:33.743Z,13.70
2018-09-30T09:39:05.150Z,13.80
2018-09-30T09:41:33.734Z,13.90
2018-09-30T09:44:02.287Z,14.00
2018-09-30T09:46:32.476Z,14.10
2018-09-30T09:49:01.374Z,14.30
2018-09-30T09:51:29.851Z,14.40
2018-09-30T09:53:58.528Z,14.60
2018-09-30T09:56:27.041Z,14.80
2018-09-30T09:58:55.648Z,14.90
2018-09-30T10:01:24.280Z,15.00
2018-09-30T10:03:52.851Z,15.00
2018-09-30T10:06:21.364Z,15.10
2018-09-30T10:08:49.864Z,15.10
2018-09-30T10:11:18.773Z,15.20
2018-09-30T10:13:47.420Z,15.20
2018-09-30T10:16:16.172Z,15.20
2018-09-30T10:18:44.733Z,15.20
2018-09-30T10:21:13.297Z,15.40
2018-09-30T10:23:41.891Z,15.60
2018-09-30T10:26:10.693Z,15.60
2018-09-30T10:28:39.370Z,15.70
2018-09-30T10:31:08.416Z,15.70
2018-09-30T10:33:37.362Z,15.80
2018-09-30T10:36:05.957Z,15.90
2018-09-30T10:38:34.766Z,15.90
2018-09-30T10:41:03.309Z,15.90
2018-09-30T10:43:31.779Z,16.00
2018-09-30T10:46:00.321Z,16.00
2018-09-30T10:48:28.998Z,16.10
2018-09-30T10:50:57.480Z,16.20
2018-09-30T10:53:26.080Z,16.40
2018-09-30T10:55:54.708Z,16.50
2018-09-30T10:58:23.198Z,16.50
2018-09-30T11:00:51.716Z,16.60
2018-09-30T11:03:20.405Z,16.50
2018-09-30T11:05:48.924Z,16.50
2018-09-30T11:08:17.391Z,16.60
2018-09-30T11:10:45.897Z,16.70
2018-09-30T11:13:14.380Z,16.60
2018-09-30T11:15:42.941Z,16.60
2018-09-30T11:18:11.461Z,16.70
2018-09-30T11:20:40.307Z,16.70
2018-09-30T11:23:09.650Z,17.00
2018-09-30T11:25:39.144Z,17.10
2018-09-30T11:28:07.695Z,17.00
2018-09-30T11:30:36.259Z,16.90
2018-09-30T11:33:04.980Z,17.10
2018-09-30T11:35:33.900Z,17.10
2018-09-30T11:38:02.474Z,17.10
2018-09-30T11:40:31.149Z,17.10
2018-09-30T11:43:00.464Z,17.20
2018-09-30T11:45:29.259Z,17.30
2018-09-30T11:47:57.828Z,17.30
2018-09-30T11:50:26.389Z,17.30
2018-09-30T11:52:54.893Z,17.40
2018-09-30T11:55:23.489Z,17.40
2018-09-30T11:57:52.106Z,17.70
2018-09-30T12:00:21.536Z,17.80
2018-09-30T12:02:50.097Z,18.00
2018-09-30T12:05:18.694Z,18.10
2018-09-30T12:07:48.148Z,18.20
2018-09-30T12:10:16.709Z,18.50
2018-09-30T12:12:46.093Z,18.70
2018-09-30T12:15:15.905Z,18.70
2018-09-30T12:17:44.503Z,18.70
2018-09-30T12:20:13.530Z,18.70
2018-09-30T12:22:42.024Z,18.40
2018-09-30T12:25:10.627Z,18.50
2018-09-30T12:27:39.329Z,18.70
2018-09-30T12:30:08.952Z,19.10
2018-09-30T12:32:37.467Z,19.30
2018-09-30T12:35:05.977Z,19.50
2018-09-30T12:37:35.932Z,19.40
2018-09-30T12:47:02.025Z,19.70
2018-09-30T12:49:30.825Z,19.10
2018-09-30T12:52:00.860Z,19.00
2018-09-30T12:54:29.675Z,19.30
2018-09-30T12:56:58.840Z,19.30
2018-09-30T12:59:28.330Z,19.60
2018-09-30T13:01:56.904Z,19.80
2018-09-30T13:04:25.546Z,20.20
2018-09-30T13:06:54.378Z,20.50
2018-09-30T13:09:22.956Z,21.00
2018-09-30T13:11:51.546Z,21.10
2018-09-30T13:14:20.292Z,20.90
2018-09-30T13:16:48.844Z,21.00
2018-09-30T13:19:17.536Z,20.90
2018-09-30T13:21:46.079Z,21.20
2018-09-30T13:24:14.708Z,21.60
2018-09-30T13:26:43.196Z,21.70
2018-09-30T13:29:11.632Z,22.20
2018-09-30T13:31:40.158Z,22.40
2018-09-30T13:34:08.620Z,22.50
2018-09-30T13:36:37.166Z,22.30
2018-09-30T13:39:08.841Z,22.50
2018-09-30T13:41:37.785Z,22.60
2018-09-30T13:44:06.389Z,22.90
2018-09-30T13:46:34.980Z,22.80
2018-09-30T13:49:03.802Z,23.10
2018-09-30T13:51:32.283Z,23.50
2018-09-30T13:54:00.746Z,23.90
2018-09-30T13:56:29.368Z,23.70
2018-09-30T13:58:57.816Z,23.60
2018-09-30T14:01:26.341Z,23.20
2018-09-30T14:03:54.913Z,23.60
2018-09-30T14:06:23.485Z,23.50
2018-09-30T14:08:52.058Z,23.50
2018-09-30T14:11:20.622Z,23.00
2018-09-30T14:13:49.190Z,22.40
2018-09-30T14:16:17.930Z,21.70
2018-09-30T14:18:46.504Z,21.30
2018-09-30T14:21:15.017Z,21.00
2018-09-30T14:23:43.489Z,20.50
2018-09-30T14:26:11.984Z,20.00
2018-09-30T14:28:40.556Z,19.70
2018-09-30T14:31:09.488Z,19.40
2018-09-30T14:33:37.997Z,19.40
2018-09-30T14:36:06.565Z,19.10
2018-09-30T14:38:35.130Z,18.90
2018-09-30T14:41:03.860Z,18.80
2018-09-30T14:43:32.390Z,18.80
2018-09-30T14:46:00.970Z,18.80
2018-09-30T14:48:29.645Z,18.60
2018-09-30T14:50:58.165Z,18.70
2018-09-30T14:53:26.842Z,18.70
2018-09-30T14:55:56.395Z,18.60
2018-09-30T14:58:24.931Z,18.50
2018-09-30T15:00:53.456Z,18.40
2018-09-30T15:03:22.072Z,18.30
2018-09-30T15:05:50.543Z,18.30
2018-09-30T15:08:19.086Z,18.20
2018-09-30T15:10:55.581Z,18.30
2018-09-30T15:13:24.193Z,18.30
2018-09-30T15:15:52.725Z,18.30
2018-09-30T15:18:21.280Z,18.20
2018-09-30T15:20:49.800Z,18.20
2018-09-30T15:23:18.371Z,18.20
2018-09-30T15:25:46.901Z,18.20
2018-09-30T15:28:15.390Z,18.00
2018-09-30T15:30:43.846Z,17.90
2018-09-30T15:33:12.329Z,17.80
2018-09-30T15:35:40.773Z,17.90
2018-09-30T15:38:09.336Z,17.70
2018-09-30T15:40:37.914Z,17.60
2018-09-30T15:43:06.685Z,17.60
2018-09-30T15:45:35.122Z,17.50
2018-09-30T15:48:03.699Z,17.40
2018-09-30T15:50:32.298Z,17.40
2018-09-30T15:53:00.867Z,17.40
2018-09-30T15:55:29.389Z,17.30
2018-09-30T15:57:57.887Z,17.20
2018-09-30T16:00:26.421Z,17.20
2018-09-30T16:02:54.972Z,17.20
2018-09-30T16:05:23.582Z,17.10
2018-09-30T16:07:52.100Z,17.00
2018-09-30T16:10:20.590Z,17.00
2018-09-30T16:12:49.089Z,17.00
2018-09-30T16:15:17.556Z,16.90
2018-09-30T16:17:46.009Z,16.90
2018-09-30T16:20:14.788Z,16.80
2018-09-30T16:22:43.293Z,16.80
2018-09-30T16:25:11.830Z,16.70
2018-09-30T16:27:40.314Z,16.70
2018-09-30T16:30:08.914Z,16.60
2018-09-30T16:32:37.389Z,16.60
2018-09-30T16:35:05.860Z,16.60
2018-09-30T16:37:34.369Z,16.50
2018-09-30T16:40:02.901Z,16.50
2018-09-30T16:42:31.500Z,16.40
2018-09-30T16:45:00.026Z,16.40
2018-09-30T16:47:28.480Z,16.30
2018-09-30T16:49:57.001Z,16.30
2018-09-30T16:52:25.618Z,16.30
2018-09-30T16:54:54.507Z,16.20
2018-09-30T16:57:23.042Z,16.10
2018-09-30T16:59:51.540Z,16.00
2018-09-30T17:02:20.173Z,16.00
2018-09-30T17:04:48.669Z,15.90
2018-09-30T17:07:17.268Z,15.80
2018-09-30T17:09:46.109Z,15.80
2018-09-30T17:12:14.718Z,15.70
2018-09-30T17:14:43.208Z,15.70
2018-09-30T17:17:11.852Z,15.60
2018-09-30T17:19:40.281Z,15.60
2018-09-30T17:22:09.729Z,15.50
2018-09-30T17:24:38.180Z,15.50
2018-09-30T17:27:06.784Z,15.40
2018-09-30T17:29:35.425Z,15.40
2018-09-30T17:32:03.944Z,15.30
2018-09-30T17:34:32.442Z,15.20
2018-09-30T17:37:00.982Z,15.20
2018-09-30T17:39:29.579Z,15.10
2018-09-30T17:41:58.131Z,15.00
2018-09-30T17:44:26.741Z,15.00
2018-09-30T17:46:55.244Z,14.90
2018-09-30T17:49:23.846Z,14.90
2018-09-30T17:51:52.290Z,14.80
2018-09-30T17:54:20.828Z,14.70
2018-09-30T17:56:49.248Z,14.70
2018-09-30T17:59:17.896Z,14.70
2018-09-30T18:01:46.321Z,14.60
2018-09-30T18:04:15.018Z,14.50
2018-09-30T18:06:43.757Z,14.50
2018-09-30T18:09:13.264Z,14.40
2018-09-30T18:11:43.008Z,14.40
2018-09-30T18:14:11.860Z,14.40
2018-09-30T18:16:43.551Z,14.30
2018-09-30T18:19:12.269Z,14.30
2018-09-30T18:21:42.017Z,14.30
2018-09-30T18:24:16.556Z,14.20
2018-09-30T18:26:46.177Z,14.20
2018-09-30T18:29:15.569Z,14.10
2018-09-30T18:31:45.286Z,14.00
2018-09-30T18:34:16.337Z,14.00
2018-09-30T18:36:45.014Z,14.00
2018-09-30T18:39:14.322Z,14.00
2018-09-30T18:41:42.989Z,13.90
2018-09-30T18:44:13.334Z,14.00
2018-09-30T18:46:42.168Z,14.00
2018-09-30T18:49:11.189Z,13.90
2018-09-30T18:51:39.712Z,14.00
2018-09-30T18:54:08.285Z,14.00
2018-09-30T18:56:36.949Z,13.90
2018-09-30T18:59:05.564Z,13.80
2018-09-30T19:01:34.182Z,13.80
2018-09-30T19:04:02.679Z,13.70
2018-09-30T19:06:31.241Z,13.70
2018-09-30T19:08:59.933Z,13.60
2018-09-30T19:11:28.506Z,13.60
2018-09-30T19:13:57.002Z,13.60
2018-09-30T19:16:25.525Z,13.50
2018-09-30T19:18:54.061Z,13.50
2018-09-30T19:21:22.696Z,13.50
2018-09-30T19:23:51.465Z,13.50
2018-09-30T19:26:20.245Z,13.50
2018-09-30T19:28:48.939Z,13.40
2018-09-30T19:31:20.029Z,13.40
2018-09-30T19:33:51.201Z,13.40
2018-09-30T19:36:21.566Z,13.40
2018-09-30T19:38:50.392Z,13.40
2018-09-30T19:41:19.302Z,13.40
2018-09-30T19:43:47.805Z,13.40
2018-09-30T19:46:16.360Z,13.30
2018-09-30T19:48:44.937Z,13.30
2018-09-30T19:51:14.138Z,13.30
2018-09-30T19:53:43.093Z,13.30
2018-09-30T19:56:11.668Z,13.30
2018-09-30T19:58:40.232Z,13.30
2018-09-30T20:01:08.782Z,13.40
2018-09-30T20:03:37.266Z,13.30
2018-09-30T20:06:05.786Z,13.40
2018-09-30T20:08:34.269Z,13.40
2018-09-30T20:11:02.755Z,13.40
2018-09-30T20:13:31.291Z,13.40
2018-09-30T20:15:59.810Z,13.40
2018-09-30T20:18:28.335Z,13.40
2018-09-30T20:20:56.901Z,13.40
2018-09-30T20:23:25.529Z,13.40
2018-09-30T20:25:54.036Z,13.40
2018-09-30T20:28:22.504Z,13.40
2018-09-30T20:30:51.898Z,13.40
2018-09-30T20:33:20.438Z,13.40
2018-09-30T20:35:49.025Z,13.40
2018-09-30T20:38:17.769Z,13.40
2018-09-30T20:40:46.252Z,13.30
2018-09-30T20:43:14.775Z,13.30
2018-09-30T20:45:43.436Z,13.30
2018-09-30T20:48:11.920Z,13.20
2018-09-30T20:50:40.450Z,13.10
2018-09-30T20:53:09.023Z,13.10
2018-09-30T20:55:37.590Z,13.10
2018-09-30T20:58:06.224Z,13.10
2018-09-30T21:00:34.730Z,13.00
2018-09-30T21:03:03.276Z,13.00
2018-09-30T21:06:45.001Z,13.00
2018-09-30T21:09:16.577Z,12.90
2018-09-30T21:11:45.034Z,12.90
2018-09-30T21:14:13.561Z,12.80
2018-09-30T21:16:42.102Z,12.80
2018-09-30T21:19:10.629Z,12.80
2018-09-30T21:21:39.269Z,12.80
2018-09-30T21:24:07.861Z,12.70
2018-09-30T21:26:36.375Z,12.70
2018-09-30T21:29:04.965Z,12.70
2018-09-30T21:31:33.547Z,12.60
2018-09-30T21:34:02.992Z,12.70
2018-09-30T21:36:31.518Z,12.70
2018-09-30T21:39:00.016Z,12.80
2018-09-30T21:41:28.546Z,12.80
2018-09-30T21:43:57.064Z,12.80
2018-09-30T21:46:25.502Z,12.90
2018-09-30T21:48:54.613Z,12.90
2018-09-30T21:51:23.084Z,12.90
2018-09-30T21:53:51.572Z,12.90
2018-09-30T21:56:20.038Z,12.90
2018-09-30T21:58:48.520Z,12.90
2018-09-30T22:01:17.087Z,12.80
2018-09-30T22:03:45.472Z,12.80
2018-09-30T22:06:13.977Z,12.70
2018-09-30T22:08:42.472Z,12.70
2018-09-30T22:11:10.916Z,12.70
2018-09-30T22:20:40.589Z,12.70
2018-09-30T22:23:09.341Z,12.60
2018-09-30T22:25:37.889Z,12.60
2018-09-30T22:28:06.369Z,12.60
2018-09-30T22:30:34.931Z,12.60
2018-09-30T22:33:03.957Z,12.60
2018-09-30T22:35:32.536Z,12.60
2018-09-30T22:38:01.013Z,12.60
2018-09-30T22:40:29.493Z,12.60
2018-09-30T22:42:57.978Z,12.60
2018-09-30T22:45:26.428Z,12.60
2018-09-30T22:47:54.931Z,12.60
2018-09-30T22:50:23.412Z,12.50
2018-09-30T22:52:51.888Z,12.50
2018-09-30T22:55:20.354Z,12.50
2018-09-30T22:57:48.844Z,12.50
2018-09-30T23:00:17.314Z,12.50
2018-09-30T23:02:45.815Z,12.50
2018-09-30T23:05:14.313Z,12.40
2018-09-30T23:07:42.759Z,12.50
2018-09-30T23:10:12.704Z,12.40
2018-09-30T23:12:41.486Z,12.40
2018-09-30T23:15:10.381Z,12.40
2018-09-30T23:17:38.821Z,12.40
2018-09-30T23:20:11.998Z,12.40
2018-09-30T23:22:40.512Z,12.40
2018-09-30T23:25:09.022Z,12.30
2018-09-30T23:27:37.470Z,12.30
2018-09-30T23:30:06.393Z,12.30
2018-09-30T23:32:35.253Z,12.30
2018-09-30T23:35:03.980Z,12.30
2018-09-30T23:37:32.422Z,12.30
2018-09-30T23:40:00.912Z,12.40
2018-09-30T23:42:29.405Z,12.40
2018-09-30T23:44:57.909Z,12.40
2018-09-30T23:47:26.488Z,12.40
2018-09-30T23:49:54.941Z,12.50
2018-09-30T23:52:23.413Z,12.50
2018-09-30T23:54:52.006Z,12.50
2018-09-30T23:57:20.548Z,12.50
2018-09-30T23:59:49.388Z,12.60
